createdAt,value
2022-09-16T00:00:58.089Z,13.77
2022-09-16T00:01:58.088Z,13.77
2022-09-16T00:02:58.023Z,13.76
2022-09-16T00:03:57.978Z,13.80
2022-09-16T00:04:57.953Z,13.80
2022-09-16T00:05:57.929Z,13.80
2022-09-16T00:06:57.925Z,13.80
2022-09-16T00:07:57.900Z,13.76
2022-09-16T00:08:57.871Z,13.84
2022-09-16T00:09:57.851Z,13.89
2022-09-16T00:10:57.825Z,13.89
2022-09-16T00:11:57.831Z,13.84
2022-09-16T00:12:57.780Z,13.83
2022-09-16T00:14:57.738Z,13.81
2022-09-16T00:15:57.816Z,13.80
2022-09-16T00:16:57.773Z,13.84
2022-09-16T00:17:57.722Z,13.79
2022-09-16T00:18:57.651Z,13.87
2022-09-16T00:19:57.641Z,13.76
2022-09-16T00:20:57.614Z,13.79
2022-09-16T00:21:57.592Z,13.76
2022-09-16T00:22:58.259Z,13.77
2022-09-16T00:23:57.549Z,13.76
2022-09-16T00:24:57.529Z,13.77
2022-09-16T00:25:57.513Z,13.81
2022-09-16T00:26:57.489Z,13.80
2022-09-16T00:27:57.457Z,13.74
2022-09-16T00:28:57.442Z,13.74
2022-09-16T00:29:57.428Z,13.74
2022-09-16T00:30:57.439Z,13.71
2022-09-16T00:31:57.413Z,13.69
2022-09-16T00:32:57.365Z,13.65
2022-09-16T00:33:57.340Z,13.70
2022-09-16T00:34:57.316Z,13.67
2022-09-16T00:35:57.291Z,13.67
2022-09-16T00:36:57.314Z,13.79
2022-09-16T00:37:58.183Z,13.77
2022-09-16T00:39:06.125Z,13.74
2022-09-16T00:40:50.743Z,13.69
2022-09-16T00:41:50.877Z,13.69
2022-09-16T00:42:50.643Z,13.71
2022-09-16T00:43:50.801Z,13.69
2022-09-16T00:44:50.487Z,13.69
2022-09-16T00:45:50.454Z,13.67
2022-09-16T00:46:50.519Z,13.65
2022-09-16T00:47:50.410Z,13.63
2022-09-16T00:48:50.399Z,13.65
2022-09-16T00:50:50.364Z,13.63
2022-09-16T00:51:50.349Z,13.62
2022-09-16T00:52:50.303Z,13.54
2022-09-16T00:53:50.291Z,13.58
2022-09-16T00:54:50.267Z,13.59
2022-09-16T00:55:50.250Z,13.55
2022-09-16T00:56:50.255Z,13.52
2022-09-16T00:57:50.240Z,13.52
2022-09-16T00:58:50.176Z,13.59
2022-09-16T00:59:50.157Z,13.55
2022-09-16T01:00:50.177Z,13.54
2022-09-16T01:01:50.178Z,13.54
2022-09-16T01:02:50.097Z,13.54
2022-09-16T01:03:50.072Z,13.65
2022-09-16T01:04:50.045Z,13.56
2022-09-16T01:05:50.030Z,13.56
2022-09-16T01:06:50.005Z,13.54
2022-09-16T01:07:49.980Z,13.52
2022-09-16T01:08:49.968Z,13.56
2022-09-16T01:09:49.939Z,13.54
2022-09-16T01:10:50.110Z,13.56
2022-09-16T01:11:49.911Z,13.54
2022-09-16T01:12:49.952Z,13.58
2022-09-16T01:13:49.865Z,13.54
2022-09-16T01:14:49.874Z,13.65
2022-09-16T01:15:49.860Z,13.65
2022-09-16T01:16:49.797Z,13.65
2022-09-16T01:17:49.768Z,13.55
2022-09-16T01:18:49.746Z,13.61
2022-09-16T01:19:49.734Z,13.56
2022-09-16T01:20:49.765Z,13.54
2022-09-16T01:21:49.684Z,13.65
2022-09-16T01:22:49.663Z,13.52
2022-09-16T01:23:49.638Z,13.54
2022-09-16T01:24:49.617Z,13.46
2022-09-16T01:25:49.594Z,13.51
2022-09-16T01:26:49.574Z,13.58
2022-09-16T01:27:49.553Z,13.51
2022-09-16T01:28:49.539Z,13.58
2022-09-16T01:29:49.514Z,13.51
2022-09-16T01:30:49.490Z,13.49
2022-09-16T01:31:49.586Z,13.59
2022-09-16T01:32:49.450Z,13.52
2022-09-16T01:33:49.431Z,13.52
2022-09-16T01:34:49.416Z,13.55
2022-09-16T01:35:49.381Z,13.55
2022-09-16T01:36:49.356Z,13.51
2022-09-16T01:37:49.335Z,13.47
2022-09-16T01:38:49.317Z,13.49
2022-09-16T01:39:49.319Z,13.43
2022-09-16T01:40:49.270Z,13.47
2022-09-16T01:41:49.267Z,13.44
2022-09-16T01:42:49.224Z,13.47
2022-09-16T01:43:49.210Z,13.43
2022-09-16T01:44:49.205Z,13.46
2022-09-16T01:45:49.163Z,13.54
2022-09-16T01:46:49.186Z,13.44
2022-09-16T01:47:49.134Z,13.54
2022-09-16T01:48:53.527Z,13.49
2022-09-16T01:49:49.073Z,13.52
2022-09-16T01:51:49.031Z,13.46
2022-09-16T01:52:49.016Z,13.51
2022-09-16T01:53:48.986Z,13.46
2022-09-16T01:54:48.970Z,13.43
2022-09-16T01:55:48.974Z,13.38
2022-09-16T01:56:48.992Z,13.47
2022-09-16T01:57:48.994Z,13.54
2022-09-16T01:58:48.917Z,13.47
2022-09-16T01:59:48.919Z,13.54
2022-09-16T02:00:48.910Z,13.49
2022-09-16T02:01:49.007Z,13.47
2022-09-16T02:02:48.847Z,13.44
2022-09-16T02:03:48.859Z,13.44
2022-09-16T02:04:48.841Z,13.43
2022-09-16T02:05:48.820Z,13.47
2022-09-16T02:06:48.781Z,13.49
2022-09-16T02:07:48.744Z,13.47
2022-09-16T02:08:48.761Z,13.47
2022-09-16T02:09:48.718Z,13.47
2022-09-16T02:10:48.702Z,13.46
2022-09-16T02:11:48.669Z,13.46
2022-09-16T02:12:48.632Z,13.44
2022-09-16T02:13:48.612Z,13.47
2022-09-16T02:14:48.668Z,13.43
2022-09-16T02:15:48.592Z,13.49
2022-09-16T02:16:48.489Z,13.38
2022-09-16T02:17:48.503Z,13.46
2022-09-16T02:18:48.470Z,13.44
2022-09-16T02:19:48.428Z,13.43
2022-09-16T02:20:48.405Z,13.46
2022-09-16T02:21:48.395Z,13.37
2022-09-16T02:22:48.367Z,13.54
2022-09-16T02:23:48.351Z,13.44
2022-09-16T02:24:48.320Z,13.44
2022-09-16T02:25:48.311Z,13.41
2022-09-16T02:26:48.283Z,13.46
2022-09-16T02:27:48.261Z,13.38
2022-09-16T02:28:48.245Z,13.44
2022-09-16T02:29:48.213Z,13.43
2022-09-16T02:30:48.191Z,13.49
2022-09-16T02:31:48.893Z,13.46
2022-09-16T02:32:48.148Z,13.47
2022-09-16T02:33:48.129Z,13.44
2022-09-16T02:34:48.116Z,13.43
2022-09-16T02:35:48.082Z,13.41
2022-09-16T02:36:48.066Z,13.46
2022-09-16T02:37:48.049Z,13.46
2022-09-16T02:38:48.021Z,13.46
2022-09-16T02:39:48.034Z,13.52
2022-09-16T02:40:47.977Z,13.51
2022-09-16T02:41:47.960Z,13.38
2022-09-16T02:42:47.952Z,13.37
2022-09-16T02:43:47.942Z,13.38
2022-09-16T02:44:47.951Z,13.33
2022-09-16T02:45:47.874Z,13.38
2022-09-16T02:46:47.901Z,13.36
2022-09-16T02:47:47.837Z,13.36
2022-09-16T02:48:47.805Z,13.36
2022-09-16T02:49:47.784Z,13.40
2022-09-16T02:50:47.756Z,13.32
2022-09-16T02:51:47.737Z,13.40
2022-09-16T02:52:47.721Z,13.40
2022-09-16T02:53:47.814Z,13.36
2022-09-16T02:54:47.681Z,13.41
2022-09-16T02:55:47.658Z,13.38
2022-09-16T02:56:47.638Z,13.38
2022-09-16T02:57:47.616Z,13.32
2022-09-16T02:58:47.592Z,13.38
2022-09-16T02:59:47.570Z,13.33
2022-09-16T03:00:47.540Z,13.36
2022-09-16T03:01:47.585Z,13.37
2022-09-16T03:02:47.543Z,13.36
2022-09-16T03:03:47.486Z,13.37
2022-09-16T03:04:47.464Z,13.46
2022-09-16T03:05:47.440Z,13.46
2022-09-16T03:06:47.410Z,13.49
2022-09-16T03:07:47.394Z,13.46
2022-09-16T03:08:47.431Z,13.54
2022-09-16T03:09:47.339Z,13.47
2022-09-16T03:10:47.326Z,13.41
2022-09-16T03:11:47.304Z,13.41
2022-09-16T03:12:47.279Z,13.38
2022-09-16T03:13:47.255Z,13.41
2022-09-16T03:14:47.250Z,13.41
2022-09-16T03:15:47.238Z,13.38
2022-09-16T03:16:47.210Z,13.40
2022-09-16T03:17:47.169Z,13.40
2022-09-16T03:18:47.156Z,13.29
2022-09-16T03:19:47.132Z,13.32
2022-09-16T03:20:47.103Z,13.21
2022-09-16T03:21:47.093Z,13.29
2022-09-16T03:22:47.063Z,13.40
2022-09-16T03:23:47.096Z,13.30
2022-09-16T03:24:47.020Z,13.30
2022-09-16T03:25:47.017Z,13.27
2022-09-16T03:26:46.979Z,13.27
2022-09-16T03:27:46.962Z,13.24
2022-09-16T03:28:46.960Z,13.22
2022-09-16T03:29:46.913Z,13.22
2022-09-16T03:30:46.954Z,13.27
2022-09-16T03:31:46.875Z,13.15
2022-09-16T03:32:46.856Z,13.17
2022-09-16T03:33:46.827Z,13.14
2022-09-16T03:34:46.807Z,13.12
2022-09-16T03:35:46.794Z,13.14
2022-09-16T03:36:46.785Z,13.09
2022-09-16T03:37:46.739Z,13.25
2022-09-16T03:38:46.762Z,13.12
2022-09-16T03:39:46.755Z,13.20
2022-09-16T03:40:46.673Z,13.14
2022-09-16T03:41:46.652Z,13.15
2022-09-16T03:42:46.637Z,13.22
2022-09-16T03:43:46.609Z,13.14
2022-09-16T03:44:46.587Z,13.15
2022-09-16T03:45:46.572Z,13.18
2022-09-16T03:46:46.542Z,13.12
2022-09-16T03:47:46.515Z,13.18
2022-09-16T03:48:46.511Z,13.20
2022-09-16T03:49:46.485Z,13.15
2022-09-16T03:50:46.502Z,13.20
2022-09-16T03:51:46.438Z,13.15
2022-09-16T03:52:46.422Z,13.18
2022-09-16T03:53:46.426Z,13.15
2022-09-16T03:54:46.375Z,13.15
2022-09-16T03:55:46.341Z,13.12
2022-09-16T03:56:46.349Z,13.12
2022-09-16T03:57:46.299Z,13.09
2022-09-16T03:58:46.290Z,13.09
2022-09-16T03:59:46.342Z,13.11
2022-09-16T04:00:46.238Z,13.12
2022-09-16T04:01:46.230Z,13.07
2022-09-16T04:02:46.228Z,13.11
2022-09-16T04:03:46.170Z,13.03
2022-09-16T04:04:46.167Z,13.09
2022-09-16T04:05:46.132Z,13.09
2022-09-16T04:06:46.105Z,13.09
2022-09-16T04:07:46.081Z,13.11
2022-09-16T04:08:46.069Z,13.06
2022-09-16T04:09:46.042Z,13.12
2022-09-16T04:10:46.017Z,13.11
2022-09-16T04:11:46.006Z,13.09
2022-09-16T04:12:45.971Z,13.14
2022-09-16T04:13:45.994Z,13.17
2022-09-16T04:14:45.988Z,13.06
2022-09-16T04:15:45.990Z,13.11
2022-09-16T04:16:45.880Z,13.04
2022-09-16T04:17:45.902Z,13.03
2022-09-16T04:18:45.844Z,13.06
2022-09-16T04:19:45.864Z,13.11
2022-09-16T04:20:45.871Z,13.09
2022-09-16T04:21:45.778Z,13.12
2022-09-16T04:22:45.753Z,13.03
2022-09-16T04:23:45.735Z,13.07
2022-09-16T04:24:45.722Z,13.03
2022-09-16T04:25:45.723Z,13.03
2022-09-16T04:26:45.717Z,13.02
2022-09-16T04:27:45.727Z,12.97
2022-09-16T04:28:45.671Z,13.02
2022-09-16T04:29:45.617Z,13.03
2022-09-16T04:30:45.608Z,13.09
2022-09-16T04:31:45.556Z,13.09
2022-09-16T04:32:45.550Z,13.03
2022-09-16T04:33:45.514Z,13.03
2022-09-16T04:34:45.497Z,12.95
2022-09-16T04:35:45.473Z,12.95
2022-09-16T04:36:45.457Z,12.96
2022-09-16T04:37:45.426Z,13.04
2022-09-16T04:38:45.406Z,12.84
2022-09-16T04:39:45.402Z,12.89
2022-09-16T04:40:45.355Z,12.99
2022-09-16T04:41:45.342Z,12.96
2022-09-16T04:42:45.345Z,12.88
2022-09-16T04:43:45.313Z,12.96
2022-09-16T04:44:45.281Z,13.03
2022-09-16T04:45:45.262Z,13.02
2022-09-16T04:46:45.249Z,12.97
2022-09-16T04:47:45.218Z,12.97
2022-09-16T04:48:45.186Z,13.07
2022-09-16T04:49:45.161Z,12.97
2022-09-16T04:50:45.149Z,13.07
2022-09-16T04:51:45.120Z,13.02
2022-09-16T04:52:45.107Z,13.06
2022-09-16T04:53:45.181Z,13.06
2022-09-16T04:54:45.054Z,13.06
2022-09-16T04:55:45.031Z,13.07
2022-09-16T04:56:45.078Z,13.09
2022-09-16T04:57:44.994Z,13.07
2022-09-16T04:58:44.994Z,13.04
2022-09-16T04:59:45.029Z,13.04
2022-09-16T05:00:44.996Z,13.03
2022-09-16T05:01:44.943Z,13.06
2022-09-16T05:02:44.916Z,13.02
2022-09-16T05:03:44.942Z,13.04
2022-09-16T05:04:44.851Z,13.04
2022-09-16T05:05:44.817Z,13.09
2022-09-16T05:06:44.810Z,13.06
2022-09-16T05:07:44.801Z,13.03
2022-09-16T05:08:44.776Z,13.02
2022-09-16T05:09:44.732Z,13.09
2022-09-16T05:10:44.703Z,13.06
2022-09-16T05:11:44.714Z,13.07
2022-09-16T05:12:49.242Z,13.07
2022-09-16T05:13:44.745Z,13.06
2022-09-16T05:14:44.618Z,13.04
2022-09-16T05:15:47.618Z,13.07
2022-09-16T05:16:44.581Z,13.02
2022-09-16T05:17:51.146Z,13.04
2022-09-16T05:18:44.547Z,13.06
2022-09-16T05:19:44.587Z,13.06
2022-09-16T05:20:44.561Z,13.06
2022-09-16T05:21:44.578Z,13.06
2022-09-16T05:22:44.548Z,13.12
2022-09-16T05:23:46.988Z,13.09
2022-09-16T05:24:44.398Z,13.09
2022-09-16T05:25:44.379Z,13.11
2022-09-16T05:26:44.395Z,13.03
2022-09-16T05:27:44.398Z,13.07
2022-09-16T05:28:44.360Z,13.07
2022-09-16T05:29:44.392Z,13.02
2022-09-16T05:30:44.313Z,13.02
2022-09-16T05:31:44.242Z,13.06
2022-09-16T05:32:44.222Z,13.07
2022-09-16T05:33:44.301Z,13.06
2022-09-16T05:34:44.185Z,13.03
2022-09-16T05:35:44.164Z,13.04
2022-09-16T05:36:44.152Z,13.02
2022-09-16T05:37:44.114Z,13.04
2022-09-16T05:38:59.126Z,13.03
2022-09-16T05:39:44.082Z,13.06
2022-09-16T05:40:44.048Z,13.03
2022-09-16T05:41:44.026Z,13.03
2022-09-16T05:42:44.003Z,13.06
2022-09-16T05:43:43.985Z,13.00
2022-09-16T05:44:43.975Z,13.06
2022-09-16T05:45:44.090Z,13.11
2022-09-16T05:46:43.945Z,13.04
2022-09-16T05:47:43.900Z,13.20
2022-09-16T05:48:43.942Z,13.12
2022-09-16T05:49:43.858Z,13.22
2022-09-16T05:50:43.826Z,13.17
2022-09-16T05:51:43.817Z,13.24
2022-09-16T05:52:43.787Z,13.24
2022-09-16T05:53:43.766Z,13.32
2022-09-16T05:54:43.740Z,13.30
2022-09-16T05:55:43.717Z,13.40
2022-09-16T05:56:43.702Z,13.33
2022-09-16T05:57:43.687Z,13.41
2022-09-16T05:58:43.679Z,13.43
2022-09-16T05:59:43.639Z,13.40
2022-09-16T06:00:43.622Z,13.47
2022-09-16T06:01:43.791Z,13.56
2022-09-16T06:02:43.661Z,13.47
2022-09-16T06:03:43.584Z,13.49
2022-09-16T06:04:43.523Z,13.55
2022-09-16T06:05:45.777Z,13.56
2022-09-16T06:06:43.498Z,13.61
2022-09-16T06:07:43.463Z,13.62
2022-09-16T06:08:43.443Z,13.62
2022-09-16T06:09:43.426Z,13.58
2022-09-16T06:10:43.404Z,13.55
2022-09-16T06:11:43.499Z,13.67
2022-09-16T06:12:43.360Z,13.59
2022-09-16T06:13:43.334Z,13.62
2022-09-16T06:14:43.316Z,13.65
2022-09-16T06:15:43.338Z,13.69
2022-09-16T06:16:43.288Z,13.69
2022-09-16T06:17:43.347Z,13.69
2022-09-16T06:18:43.230Z,13.65
2022-09-16T06:19:43.215Z,13.67
2022-09-16T06:20:43.179Z,13.58
2022-09-16T06:21:43.183Z,13.63
2022-09-16T06:22:43.180Z,13.54
2022-09-16T06:23:43.157Z,13.55
2022-09-16T06:24:43.134Z,13.56
2022-09-16T06:25:43.139Z,13.52
2022-09-16T06:26:43.109Z,13.47
2022-09-16T06:27:43.122Z,13.43
2022-09-16T06:28:43.052Z,13.38
2022-09-16T06:29:43.033Z,13.36
2022-09-16T06:30:43.038Z,13.38
2022-09-16T06:31:42.998Z,13.46
2022-09-16T06:32:42.931Z,13.43
2022-09-16T06:33:43.007Z,13.49
2022-09-16T06:34:42.899Z,13.51
2022-09-16T06:35:42.863Z,13.47
2022-09-16T06:36:45.099Z,13.49
2022-09-16T06:37:42.844Z,13.52
2022-09-16T06:38:42.805Z,13.49
2022-09-16T06:39:42.780Z,13.56
2022-09-16T06:40:42.756Z,13.65
2022-09-16T06:41:42.738Z,13.69
2022-09-16T06:42:42.720Z,13.63
2022-09-16T06:43:42.711Z,13.77
2022-09-16T06:44:42.674Z,13.80
2022-09-16T06:45:42.705Z,13.71
2022-09-16T06:46:42.651Z,13.76
2022-09-16T06:47:42.626Z,13.91
2022-09-16T06:48:42.621Z,14.01
2022-09-16T06:49:42.668Z,14.01
2022-09-16T06:50:42.582Z,14.06
2022-09-16T06:51:42.532Z,14.16
2022-09-16T06:52:42.509Z,14.17
2022-09-16T06:53:42.496Z,14.21
2022-09-16T06:54:42.471Z,14.32
2022-09-16T06:55:42.442Z,14.44
2022-09-16T06:56:42.419Z,14.60
2022-09-16T06:57:42.397Z,14.81
2022-09-16T06:58:42.386Z,15.05
2022-09-16T06:59:42.376Z,15.20
2022-09-16T07:00:42.363Z,15.39
2022-09-16T07:01:42.369Z,15.43
2022-09-16T07:02:42.413Z,15.63
2022-09-16T07:03:42.282Z,15.75
2022-09-16T07:04:42.254Z,15.82
2022-09-16T07:05:42.329Z,15.94
2022-09-16T07:07:08.167Z,15.85
2022-09-16T07:07:42.255Z,15.93
2022-09-16T07:08:42.182Z,15.88
2022-09-16T07:09:42.159Z,15.85
2022-09-16T07:10:42.139Z,15.88
2022-09-16T07:11:42.107Z,15.81
2022-09-16T07:12:42.112Z,15.88
2022-09-16T07:13:42.086Z,15.92
2022-09-16T07:14:42.081Z,15.89
2022-09-16T07:16:02.287Z,15.88
2022-09-16T07:16:42.037Z,15.99
2022-09-16T07:17:41.994Z,15.97
2022-09-16T07:18:42.041Z,15.84
2022-09-16T07:19:41.958Z,15.86
2022-09-16T07:20:41.938Z,15.86
2022-09-16T07:21:42.035Z,15.93
2022-09-16T07:22:41.894Z,15.89
2022-09-16T07:23:41.904Z,15.88
2022-09-16T07:24:41.909Z,15.84
2022-09-16T07:25:41.824Z,15.99
2022-09-16T07:26:41.812Z,15.93
2022-09-16T07:27:41.789Z,15.88
2022-09-16T07:28:41.791Z,15.86
2022-09-16T07:29:41.808Z,15.93
2022-09-16T07:30:41.749Z,15.89
2022-09-16T07:31:41.710Z,15.88
2022-09-16T07:32:41.697Z,16.00
2022-09-16T07:33:41.675Z,15.94
2022-09-16T07:34:41.691Z,16.01
2022-09-16T07:35:41.630Z,16.15
2022-09-16T07:36:41.617Z,16.11
2022-09-16T07:37:42.735Z,16.31
2022-09-16T07:38:41.572Z,16.34
2022-09-16T07:39:41.550Z,16.38
2022-09-16T07:40:41.569Z,16.42
2022-09-16T07:41:41.511Z,16.67
2022-09-16T07:42:41.502Z,16.90
2022-09-16T07:43:41.503Z,17.04
2022-09-16T07:44:41.466Z,17.06
2022-09-16T07:45:41.480Z,17.06
2022-09-16T07:46:41.426Z,17.04
2022-09-16T07:47:41.398Z,16.88
2022-09-16T07:48:41.386Z,16.85
2022-09-16T07:49:41.375Z,16.86
2022-09-16T07:50:41.343Z,16.74
2022-09-16T07:51:41.323Z,16.65
2022-09-16T07:52:41.365Z,16.55
2022-09-16T07:53:41.385Z,16.50
2022-09-16T07:54:41.264Z,16.48
2022-09-16T07:55:41.289Z,16.38
2022-09-16T07:56:41.235Z,16.37
2022-09-16T07:57:41.217Z,16.31
2022-09-16T07:58:41.237Z,16.26
2022-09-16T07:59:41.177Z,16.27
2022-09-16T08:00:41.157Z,16.20
2022-09-16T08:01:43.496Z,16.27
2022-09-16T08:02:41.170Z,16.31
2022-09-16T08:03:41.119Z,16.45
2022-09-16T08:04:41.077Z,16.55
2022-09-16T08:05:41.053Z,17.07
2022-09-16T08:06:41.058Z,17.22
2022-09-16T08:07:41.023Z,17.13
2022-09-16T08:08:41.016Z,17.06
2022-09-16T08:09:45.094Z,16.81
2022-09-16T08:10:40.962Z,16.85
2022-09-16T08:11:40.946Z,16.81
2022-09-16T08:12:40.933Z,16.93
2022-09-16T08:13:40.910Z,16.88
2022-09-16T08:14:40.888Z,16.80
2022-09-16T08:15:40.870Z,16.73
2022-09-16T08:16:40.896Z,16.58
2022-09-16T08:17:40.838Z,16.56
2022-09-16T08:18:40.824Z,16.52
2022-09-16T08:19:40.799Z,16.49
2022-09-16T08:20:40.781Z,16.48
2022-09-16T08:21:40.783Z,16.48
2022-09-16T08:22:40.754Z,16.55
2022-09-16T08:23:40.721Z,16.42
2022-09-16T08:24:40.703Z,16.42
2022-09-16T08:25:40.802Z,16.45
2022-09-16T08:26:40.809Z,16.49
2022-09-16T08:27:40.718Z,17.00
2022-09-16T08:28:45.610Z,17.47
2022-09-16T08:29:40.641Z,17.41
2022-09-16T08:30:40.597Z,17.29
2022-09-16T08:31:40.641Z,17.00
2022-09-16T08:32:40.557Z,17.06
2022-09-16T08:33:40.541Z,16.86
2022-09-16T08:34:40.542Z,16.58
2022-09-16T08:35:40.506Z,16.58
2022-09-16T08:36:40.577Z,16.53
2022-09-16T08:37:40.478Z,16.38
2022-09-16T08:38:40.451Z,16.31
2022-09-16T08:39:40.436Z,16.37
2022-09-16T08:40:40.416Z,16.30
2022-09-16T08:41:40.499Z,16.34
2022-09-16T08:42:40.383Z,16.34
2022-09-16T08:43:40.362Z,16.50
2022-09-16T08:44:40.352Z,16.89
2022-09-16T08:45:40.355Z,17.51
2022-09-16T08:46:40.305Z,17.17
2022-09-16T08:47:40.321Z,17.06
2022-09-16T08:48:40.284Z,16.86
2022-09-16T08:49:43.906Z,16.92
2022-09-16T08:50:40.235Z,16.74
2022-09-16T08:51:40.210Z,16.88
2022-09-16T08:52:40.190Z,17.29
2022-09-16T08:53:40.183Z,17.26
2022-09-16T08:54:40.149Z,17.84
2022-09-16T08:55:40.136Z,18.03
2022-09-16T08:56:44.274Z,18.44
2022-09-16T08:57:40.216Z,18.50
2022-09-16T08:58:40.178Z,18.64
2022-09-16T08:59:40.069Z,18.50
2022-09-16T09:00:40.096Z,18.95
2022-09-16T09:01:40.314Z,18.95
2022-09-16T09:03:40.001Z,19.02
2022-09-16T09:04:39.981Z,19.02
2022-09-16T09:05:39.955Z,19.06
2022-09-16T09:06:39.945Z,19.46
2022-09-16T09:07:39.918Z,19.61
2022-09-16T09:08:39.921Z,19.35
2022-09-16T09:09:39.889Z,19.66
2022-09-16T09:10:39.898Z,19.72
2022-09-16T09:11:39.857Z,20.03
2022-09-16T09:12:41.173Z,20.02
2022-09-16T09:13:39.948Z,20.03
2022-09-16T09:14:39.798Z,20.21
2022-09-16T09:15:39.784Z,20.06
2022-09-16T09:16:39.811Z,19.75
2022-09-16T09:17:48.098Z,19.78
2022-09-16T09:18:39.728Z,19.83
2022-09-16T09:19:39.715Z,19.73
2022-09-16T09:20:39.693Z,19.54
2022-09-16T09:21:39.683Z,19.48
2022-09-16T09:22:39.660Z,19.88
2022-09-16T09:23:39.654Z,20.43
2022-09-16T09:24:39.644Z,20.56
2022-09-16T09:25:39.630Z,20.90
2022-09-16T09:26:39.593Z,21.20
2022-09-16T09:27:39.579Z,21.94
2022-09-16T09:28:39.564Z,21.91
2022-09-16T09:29:39.675Z,21.48
2022-09-16T09:30:39.541Z,20.54
2022-09-16T09:31:39.580Z,19.72
2022-09-16T09:32:48.970Z,19.25
2022-09-16T09:33:46.663Z,18.95
2022-09-16T09:34:41.618Z,18.65
2022-09-16T09:35:39.461Z,18.73
2022-09-16T09:36:39.444Z,18.67
2022-09-16T09:37:39.424Z,18.42
2022-09-16T09:38:39.418Z,18.31
2022-09-16T09:39:39.417Z,18.07
2022-09-16T09:40:39.380Z,17.85
2022-09-16T09:41:39.373Z,17.81
2022-09-16T09:42:39.362Z,17.69
2022-09-16T09:44:39.318Z,17.54
2022-09-16T09:45:39.481Z,17.53
2022-09-16T09:46:39.296Z,17.50
2022-09-16T09:47:39.271Z,17.50
2022-09-16T09:48:39.276Z,17.54
2022-09-16T09:49:39.238Z,17.50
2022-09-16T09:50:39.219Z,17.74
2022-09-16T09:51:39.204Z,18.50
2022-09-16T09:52:39.189Z,19.05
2022-09-16T09:53:39.169Z,19.91
2022-09-16T09:54:39.156Z,20.95
2022-09-16T09:55:39.149Z,21.16
2022-09-16T09:56:39.120Z,21.01
2022-09-16T09:57:39.106Z,21.27
2022-09-16T09:58:39.099Z,20.56
2022-09-16T09:59:39.076Z,20.00
2022-09-16T10:00:39.091Z,19.61
2022-09-16T10:01:39.207Z,19.84
2022-09-16T10:02:39.043Z,19.43
2022-09-16T10:03:39.041Z,19.02
2022-09-16T10:04:39.005Z,19.33
2022-09-16T10:05:38.981Z,19.29
2022-09-16T10:06:38.982Z,19.38
2022-09-16T10:07:38.964Z,19.36
2022-09-16T10:08:38.941Z,19.35
2022-09-16T10:09:38.929Z,19.60
2022-09-16T10:10:38.906Z,20.00
2022-09-16T10:11:38.896Z,19.73
2022-09-16T10:12:38.879Z,19.97
2022-09-16T10:13:38.867Z,20.43
2022-09-16T10:14:38.852Z,19.98
2022-09-16T10:15:38.832Z,19.48
2022-09-16T10:16:38.850Z,19.31
2022-09-16T10:17:38.921Z,19.33
2022-09-16T10:18:38.789Z,19.70
2022-09-16T10:19:38.781Z,19.90
2022-09-16T10:20:38.764Z,20.50
2022-09-16T10:21:38.749Z,20.72
2022-09-16T10:22:38.736Z,20.80
2022-09-16T10:23:38.737Z,21.39
2022-09-16T10:24:38.713Z,21.76
2022-09-16T10:25:38.703Z,21.26
2022-09-16T10:26:38.677Z,21.14
2022-09-16T10:27:38.672Z,21.09
2022-09-16T10:28:38.657Z,21.20
2022-09-16T10:29:38.643Z,20.12
2022-09-16T10:30:38.629Z,20.00
2022-09-16T10:31:38.670Z,20.16
2022-09-16T10:32:38.601Z,20.54
2022-09-16T10:33:38.699Z,20.71
2022-09-16T10:34:38.574Z,20.87
2022-09-16T10:35:38.563Z,20.66
2022-09-16T10:36:38.568Z,20.30
2022-09-16T10:37:38.560Z,20.27
2022-09-16T10:38:38.528Z,20.39
2022-09-16T10:39:38.505Z,20.15
2022-09-16T10:40:38.525Z,19.73
2022-09-16T10:41:38.483Z,19.58
2022-09-16T10:42:38.480Z,19.33
2022-09-16T10:43:38.472Z,19.10
2022-09-16T10:44:38.448Z,19.08
2022-09-16T10:45:38.445Z,18.94
2022-09-16T10:46:38.488Z,18.67
2022-09-16T10:47:38.435Z,18.55
2022-09-16T10:48:38.397Z,18.43
2022-09-16T10:49:38.481Z,18.34
2022-09-16T10:50:38.365Z,18.18
2022-09-16T10:51:38.354Z,18.04
2022-09-16T10:52:38.345Z,18.02
2022-09-16T10:53:42.770Z,17.88
2022-09-16T10:54:38.311Z,17.84
2022-09-16T10:55:38.291Z,17.84
2022-09-16T10:56:38.280Z,17.84
2022-09-16T10:57:38.267Z,17.88
2022-09-16T10:58:38.248Z,17.82
2022-09-16T10:59:38.230Z,17.87
2022-09-16T11:00:40.282Z,17.88
2022-09-16T11:01:40.759Z,17.88
2022-09-16T11:02:38.186Z,17.82
2022-09-16T11:03:38.167Z,17.85
2022-09-16T11:04:38.193Z,17.87
2022-09-16T11:05:38.242Z,17.84
2022-09-16T11:06:38.134Z,17.91
2022-09-16T11:07:38.102Z,17.87
2022-09-16T11:08:38.086Z,17.85
2022-09-16T11:09:38.076Z,17.82
2022-09-16T11:10:38.385Z,17.89
2022-09-16T11:11:38.078Z,17.91
2022-09-16T11:12:38.023Z,17.99
2022-09-16T11:13:38.231Z,18.12
2022-09-16T11:14:37.996Z,17.99
2022-09-16T11:15:37.973Z,18.03
2022-09-16T11:16:38.029Z,18.13
2022-09-16T11:17:37.934Z,18.10
2022-09-16T11:18:37.946Z,18.22
2022-09-16T11:19:37.905Z,18.29
2022-09-16T11:20:37.941Z,18.54
2022-09-16T11:21:37.973Z,18.97
2022-09-16T11:22:37.851Z,19.40
2022-09-16T11:23:37.841Z,19.94
2022-09-16T11:24:37.821Z,20.46
2022-09-16T11:25:37.804Z,20.74
2022-09-16T11:26:37.794Z,21.05
2022-09-16T11:27:37.803Z,20.54
2022-09-16T11:28:37.769Z,20.31
2022-09-16T11:29:37.747Z,20.76
2022-09-16T11:30:37.749Z,20.74
2022-09-16T11:31:37.769Z,20.42
2022-09-16T11:32:37.770Z,20.21
2022-09-16T11:33:37.694Z,19.88
2022-09-16T11:34:37.684Z,19.79
2022-09-16T11:35:37.677Z,19.65
2022-09-16T11:36:37.655Z,19.46
2022-09-16T11:37:37.755Z,19.32
2022-09-16T11:38:39.934Z,19.08
2022-09-16T11:39:37.622Z,18.84
2022-09-16T11:40:37.636Z,18.50
2022-09-16T11:41:37.589Z,18.54
2022-09-16T11:42:37.617Z,18.59
2022-09-16T11:43:37.602Z,18.46
2022-09-16T11:44:37.571Z,18.46
2022-09-16T11:45:37.580Z,18.39
2022-09-16T11:46:37.595Z,18.43
2022-09-16T11:47:40.711Z,18.68
2022-09-16T11:48:37.502Z,18.67
2022-09-16T11:49:37.485Z,18.64
2022-09-16T11:50:37.468Z,18.72
2022-09-16T11:51:37.452Z,18.74
2022-09-16T11:52:37.460Z,19.05
2022-09-16T11:53:41.279Z,19.28
2022-09-16T11:54:37.405Z,19.25
2022-09-16T11:55:37.394Z,19.21
2022-09-16T11:56:37.377Z,19.20
2022-09-16T11:57:37.370Z,19.21
2022-09-16T11:58:37.346Z,19.68
2022-09-16T11:59:37.334Z,20.00
2022-09-16T12:00:37.313Z,20.06
2022-09-16T12:01:37.336Z,19.86
2022-09-16T12:02:37.321Z,20.13
2022-09-16T12:03:37.272Z,20.58
2022-09-16T12:04:38.348Z,20.51
2022-09-16T12:05:37.285Z,20.23
2022-09-16T12:06:37.241Z,20.03
2022-09-16T12:07:37.245Z,19.65
2022-09-16T12:08:37.210Z,19.51
2022-09-16T12:09:37.332Z,19.73
2022-09-16T12:10:37.223Z,20.00
2022-09-16T12:11:37.172Z,20.08
2022-09-16T12:12:37.156Z,20.18
2022-09-16T12:13:37.180Z,20.25
2022-09-16T12:14:37.135Z,19.97
2022-09-16T12:15:37.153Z,19.73
2022-09-16T12:16:37.212Z,19.68
2022-09-16T12:17:37.109Z,19.66
2022-09-16T12:18:37.083Z,19.95
2022-09-16T12:19:37.077Z,20.34
2022-09-16T12:20:37.071Z,20.59
2022-09-16T12:21:37.051Z,21.01
2022-09-16T12:22:37.048Z,21.13
2022-09-16T12:23:37.033Z,21.14
2022-09-16T12:24:37.012Z,21.05
2022-09-16T12:25:37.108Z,20.95
2022-09-16T12:26:37.019Z,20.96
2022-09-16T12:27:36.992Z,20.99
2022-09-16T12:28:36.973Z,21.08
2022-09-16T12:29:37.029Z,21.24
2022-09-16T12:30:36.999Z,21.16
2022-09-16T12:31:37.036Z,20.53
2022-09-16T12:32:36.948Z,20.68
2022-09-16T12:33:36.929Z,20.41
2022-09-16T12:34:36.962Z,20.43
2022-09-16T12:35:36.950Z,20.31
2022-09-16T12:36:36.930Z,20.69
2022-09-16T12:37:36.934Z,20.80
2022-09-16T12:38:36.888Z,20.96
2022-09-16T12:39:36.899Z,20.90
2022-09-16T12:40:36.943Z,20.64
2022-09-16T12:41:36.983Z,20.24
2022-09-16T12:42:36.869Z,20.27
2022-09-16T12:43:36.850Z,20.10
2022-09-16T12:44:36.959Z,20.23
2022-09-16T12:45:36.877Z,19.90
2022-09-16T12:46:36.881Z,19.84
2022-09-16T12:47:36.807Z,19.66
2022-09-16T12:48:36.788Z,19.70
2022-09-16T12:49:36.786Z,19.53
2022-09-16T12:50:36.786Z,19.32
2022-09-16T12:51:36.763Z,19.21
2022-09-16T12:52:36.811Z,18.95
2022-09-16T12:53:36.747Z,18.97
2022-09-16T12:54:51.293Z,19.01
2022-09-16T12:55:36.734Z,19.11
2022-09-16T12:56:36.805Z,18.98
2022-09-16T12:57:36.804Z,19.11
2022-09-16T12:58:36.684Z,18.95